createdAt,value
2024-02-08T00:01:48.299Z,97405.39
2024-02-08T00:04:37.105Z,97403.44
2024-02-08T00:07:24.097Z,97406.42
2024-02-08T00:10:11.028Z,97407.20
2024-02-08T00:12:58.092Z,97399.24
2024-02-08T00:15:44.950Z,97405.66
2024-02-08T00:18:32.009Z,97400.64
2024-02-08T00:21:19.320Z,97394.95
2024-02-08T00:24:06.469Z,97394.77
2024-02-08T00:26:53.200Z,97402.98
2024-02-08T00:29:44.892Z,97404.73
2024-02-08T00:32:31.816Z,97412.38
2024-02-08T00:35:19.829Z,97404.61
2024-02-08T00:38:06.846Z,97405.23
2024-02-08T00:40:53.861Z,97408.67
2024-02-08T00:43:40.820Z,97407.45
2024-02-08T00:46:28.037Z,97405.53
2024-02-08T00:49:15.129Z,97406.89
2024-02-08T00:52:02.051Z,97417.73
2024-02-08T00:54:52.317Z,97416.03
2024-02-08T00:57:39.905Z,97424.20
2024-02-08T01:00:29.619Z,97413.51
2024-02-08T01:03:16.644Z,97412.19
2024-02-08T01:06:03.766Z,97399.77
2024-02-08T01:08:52.380Z,97406.21
2024-02-08T01:11:39.275Z,97404.72
2024-02-08T01:14:26.116Z,97404.70
2024-02-08T01:17:15.665Z,97405.14
2024-02-08T01:20:08.080Z,97406.74
2024-02-08T01:22:55.593Z,97402.20
2024-02-08T01:25:42.886Z,97403.42
2024-02-08T01:28:31.282Z,97407.77
2024-02-08T01:31:18.195Z,97403.60
2024-02-08T01:34:08.703Z,97402.14
2024-02-08T01:36:55.695Z,97405.39
2024-02-08T01:39:43.093Z,97405.68
2024-02-08T01:42:30.259Z,97402.36
2024-02-08T01:45:31.651Z,97395.21
2024-02-08T01:48:18.749Z,97404.89
2024-02-08T01:51:06.282Z,97402.93
2024-02-08T01:53:53.452Z,97406.73
2024-02-08T01:56:43.716Z,97405.38
2024-02-08T01:59:33.054Z,97402.14
2024-02-08T02:02:24.294Z,97401.17
2024-02-08T02:05:19.498Z,97400.52
2024-02-08T02:08:07.518Z,97398.60
2024-02-08T02:10:54.302Z,97393.69
2024-02-08T02:13:42.170Z,97392.71
2024-02-08T02:16:29.247Z,97384.43
2024-02-08T02:19:15.909Z,97387.00
2024-02-08T02:22:02.707Z,97390.02
2024-02-08T02:24:49.899Z,97392.53
2024-02-08T02:27:41.368Z,97387.34
2024-02-08T02:30:31.243Z,97389.34
2024-02-08T02:33:20.663Z,97384.25
2024-02-08T02:36:08.599Z,97383.13
2024-02-08T02:38:55.301Z,97382.48
2024-02-08T02:41:42.272Z,97381.96
2024-02-08T02:44:29.225Z,97379.80
2024-02-08T02:47:21.724Z,97381.94
2024-02-08T02:50:09.141Z,97382.85
2024-02-08T02:52:56.192Z,97382.33
2024-02-08T02:55:43.301Z,97381.67
2024-02-08T02:58:32.858Z,97378.45
2024-02-08T03:01:20.719Z,97378.58
2024-02-08T03:04:07.749Z,97374.71
2024-02-08T03:06:54.505Z,97378.05
2024-02-08T03:09:41.309Z,97372.08
2024-02-08T03:12:28.269Z,97374.14
2024-02-08T03:15:15.236Z,97373.92
2024-02-08T03:18:02.181Z,97372.69
2024-02-08T03:20:52.063Z,97371.98
2024-02-08T03:23:39.762Z,97369.58
2024-02-08T03:26:26.741Z,97369.31
2024-02-08T03:29:14.785Z,97375.02
2024-02-08T03:32:01.692Z,97369.77
2024-02-08T03:34:48.487Z,97365.77
2024-02-08T03:37:35.477Z,97369.77
2024-02-08T03:40:27.642Z,97377.95
2024-02-08T03:43:17.356Z,97375.20
2024-02-08T03:46:06.342Z,97373.71
2024-02-08T03:48:55.720Z,97372.37
2024-02-08T03:51:43.334Z,97374.90
2024-02-08T03:54:34.446Z,97377.73
2024-02-08T03:57:25.141Z,97386.13
2024-02-08T04:00:14.881Z,97384.50
2024-02-08T04:03:07.701Z,97380.79
2024-02-08T04:05:55.008Z,97381.84
2024-02-08T04:09:04.456Z,97384.42
2024-02-08T04:12:09.810Z,97388.49
2024-02-08T04:15:15.176Z,97388.66
2024-02-08T04:18:21.018Z,97385.44
2024-02-08T04:21:26.975Z,97381.52
2024-02-08T04:24:33.011Z,97383.19
2024-02-08T04:27:38.710Z,97383.86
2024-02-08T04:30:44.421Z,97379.40
2024-02-08T04:33:50.079Z,97380.30
2024-02-08T04:36:55.362Z,97371.68
2024-02-08T04:40:01.435Z,97370.33
2024-02-08T04:43:11.217Z,97369.59
2024-02-08T04:46:16.970Z,97370.66
2024-02-08T04:49:22.407Z,97370.98
2024-02-08T04:52:27.883Z,97371.43
2024-02-08T04:55:14.822Z,97373.56
2024-02-08T04:58:27.811Z,97375.28
2024-02-08T05:01:12.581Z,97370.67
2024-02-08T05:04:02.476Z,97372.83
2024-02-08T05:06:49.866Z,97370.83
2024-02-08T05:09:37.086Z,97371.69
2024-02-08T05:12:24.129Z,97373.74
2024-02-08T05:15:14.489Z,97375.27
2024-02-08T05:18:01.653Z,97375.98
2024-02-08T05:20:49.489Z,97375.38
2024-02-08T05:23:40.241Z,97384.62
2024-02-08T05:26:27.665Z,97386.69
2024-02-08T05:29:20.958Z,97386.38
2024-02-08T05:32:11.614Z,97379.45
2024-02-08T05:34:59.549Z,97380.07
2024-02-08T05:37:48.291Z,97380.75
2024-02-08T05:40:42.399Z,97385.17
2024-02-08T05:43:29.643Z,97387.91
2024-02-08T05:46:28.658Z,97382.80
2024-02-08T05:49:16.509Z,97388.60
2024-02-08T05:52:08.316Z,97384.90
2024-02-08T05:54:56.525Z,97385.80
2024-02-08T05:57:45.877Z,97390.83
2024-02-08T06:00:47.150Z,97389.70
2024-02-08T06:03:39.411Z,97391.49
2024-02-08T06:06:36.026Z,97388.16
2024-02-08T06:09:41.147Z,97385.29
2024-02-08T06:12:53.743Z,97390.81
2024-02-08T06:15:52.300Z,97394.62
2024-02-08T06:18:42.017Z,97397.33
2024-02-08T06:21:40.391Z,97401.41
2024-02-08T06:24:27.353Z,97408.20
2024-02-08T06:27:17.646Z,97407.17
2024-02-08T06:30:10.068Z,97405.65
2024-02-08T06:33:09.930Z,97403.90
2024-02-08T06:36:00.370Z,97396.56
2024-02-08T06:38:54.461Z,97395.61
2024-02-08T06:42:00.004Z,97385.80
2024-02-08T06:44:58.452Z,97384.29
2024-02-08T06:48:00.431Z,97379.68
2024-02-08T06:51:06.162Z,97381.65
2024-02-08T06:54:12.196Z,97381.92
2024-02-08T06:57:17.488Z,97385.88
2024-02-08T07:00:23.331Z,97392.05
2024-02-08T07:03:29.144Z,97392.94
2024-02-08T07:06:35.115Z,97389.34
2024-02-08T07:09:40.782Z,97385.54
2024-02-08T07:12:46.510Z,97391.10
2024-02-08T07:15:52.031Z,97392.68
2024-02-08T07:19:06.674Z,97400.16
2024-02-08T07:22:13.920Z,97404.89
2024-02-08T07:25:19.584Z,97407.85
2024-02-08T07:28:25.517Z,97406.16
2024-02-08T07:31:30.888Z,97409.04
2024-02-08T07:34:36.678Z,97412.60
2024-02-08T07:37:29.155Z,97402.83
2024-02-08T07:40:25.778Z,97394.88
2024-02-08T07:43:16.635Z,97390.83
2024-02-08T07:46:07.002Z,97382.48
2024-02-08T07:48:59.991Z,97384.15
2024-02-08T07:51:51.967Z,97388.27
2024-02-08T07:54:40.756Z,97392.40
2024-02-08T07:57:33.026Z,97385.10
2024-02-08T08:00:35.747Z,97382.47
2024-02-08T08:03:25.245Z,97371.02
2024-02-08T08:06:16.374Z,97370.16
2024-02-08T08:09:20.864Z,97367.39
2024-02-08T08:12:08.997Z,97366.95
2024-02-08T08:15:18.242Z,97362.30
2024-02-08T08:18:17.998Z,97357.73
2024-02-08T08:21:05.660Z,97355.13
2024-02-08T08:24:01.860Z,97353.46
2024-02-08T08:26:52.978Z,97350.00
2024-02-08T08:29:45.808Z,97351.27
2024-02-08T08:32:33.514Z,97352.98
2024-02-08T08:35:46.961Z,97361.34
2024-02-08T08:38:38.655Z,97350.30
2024-02-08T08:41:25.838Z,97347.94
2024-02-08T08:44:12.923Z,97349.80
2024-02-08T08:47:02.515Z,97345.06
2024-02-08T08:49:52.607Z,97344.14
2024-02-08T08:52:49.014Z,97341.34
2024-02-08T08:55:41.320Z,97350.23
2024-02-08T08:58:29.436Z,97350.70
2024-02-08T09:01:20.456Z,97345.79
2024-02-08T09:04:11.903Z,97344.26
2024-02-08T09:07:10.241Z,97335.58
2024-02-08T09:10:03.048Z,97335.03
2024-02-08T09:13:01.617Z,97330.55
2024-02-08T09:16:18.013Z,97328.11
2024-02-08T09:19:13.721Z,97324.16
2024-02-08T09:22:03.244Z,97315.52
2024-02-08T09:24:52.122Z,97308.27
2024-02-08T09:27:40.003Z,97304.17
2024-02-08T09:30:53.929Z,97309.22
2024-02-08T09:34:02.592Z,97310.08
2024-02-08T09:36:50.301Z,97305.82
2024-02-08T09:40:00.644Z,97300.96
2024-02-08T09:43:11.073Z,97309.19
2024-02-08T09:46:07.184Z,97312.41
2024-02-08T09:48:54.368Z,97305.70
2024-02-08T09:52:07.939Z,97297.27
2024-02-08T09:54:57.589Z,97281.27
2024-02-08T09:57:47.870Z,97269.55
2024-02-08T10:00:55.131Z,97265.85
2024-02-08T10:03:46.363Z,97261.98
2024-02-08T10:06:43.312Z,97263.92
2024-02-08T10:09:42.661Z,97267.05
2024-02-08T10:12:42.364Z,97275.89
2024-02-08T10:15:57.847Z,97279.30
2024-02-08T10:18:58.588Z,97280.02
2024-02-08T10:21:45.992Z,97277.81
2024-02-08T10:24:51.150Z,97265.64
2024-02-08T10:27:37.830Z,97255.80
2024-02-08T10:30:26.889Z,97253.40
2024-02-08T10:33:16.849Z,97251.57
2024-02-08T10:36:23.152Z,97253.44
2024-02-08T10:39:28.113Z,97245.44
2024-02-08T10:42:15.566Z,97234.99
2024-02-08T10:45:07.092Z,97235.17
2024-02-08T10:47:56.513Z,97244.62
2024-02-08T10:50:45.966Z,97242.29
2024-02-08T10:53:45.520Z,97232.45
2024-02-08T10:56:42.704Z,97225.85
2024-02-08T10:59:49.796Z,97225.95
2024-02-08T11:02:42.426Z,97226.46
2024-02-08T11:05:30.586Z,97221.52
2024-02-08T11:08:26.394Z,97231.88
2024-02-08T11:11:22.521Z,97230.73
2024-02-08T11:14:10.490Z,97225.48
2024-02-08T11:17:01.892Z,97222.86
2024-02-08T11:19:59.603Z,97212.33
2024-02-08T11:22:58.797Z,97206.84
2024-02-08T11:25:46.603Z,97198.68
2024-02-08T11:28:46.038Z,97191.85
2024-02-08T11:31:43.337Z,97196.83
2024-02-08T11:34:46.656Z,97200.21
2024-02-08T11:37:39.933Z,97194.79
2024-02-08T11:40:30.008Z,97189.86
2024-02-08T11:43:21.303Z,97181.11
2024-02-08T11:46:20.386Z,97176.98
2024-02-08T11:49:16.751Z,97174.88
2024-02-08T11:52:08.742Z,97167.85
2024-02-08T11:55:15.292Z,97165.27
2024-02-08T11:58:07.280Z,97161.44
2024-02-08T12:00:54.636Z,97153.20
2024-02-08T12:03:43.262Z,97154.49
2024-02-08T12:06:35.269Z,97154.79
2024-02-08T12:09:31.714Z,97152.42
2024-02-08T12:12:20.734Z,97156.34
2024-02-08T12:15:10.052Z,97157.46
2024-02-08T12:18:10.025Z,97158.98
2024-02-08T12:20:58.761Z,97161.90
2024-02-08T12:23:54.521Z,97158.16
2024-02-08T12:26:41.456Z,97153.80
2024-02-08T12:29:31.384Z,97150.85
2024-02-08T12:32:18.488Z,97148.98
2024-02-08T12:35:15.114Z,97149.02
2024-02-08T12:38:04.547Z,97150.29
2024-02-08T12:40:51.538Z,97141.48
2024-02-08T12:43:39.106Z,97137.32
2024-02-08T12:46:27.583Z,97129.80
2024-02-08T12:49:16.911Z,97121.92
2024-02-08T12:52:05.275Z,97116.56
2024-02-08T12:54:55.933Z,97114.79
2024-02-08T12:57:43.185Z,97112.34
2024-02-08T13:00:35.759Z,97113.34
2024-02-08T13:03:25.811Z,97112.66
2024-02-08T13:06:13.754Z,97114.23
2024-02-08T13:09:27.704Z,97117.36
2024-02-08T13:12:16.682Z,97119.90
2024-02-08T13:15:07.214Z,97116.25
2024-02-08T13:17:58.064Z,97115.07
2024-02-08T13:20:45.758Z,97109.14
2024-02-08T13:23:35.750Z,97101.27
2024-02-08T13:26:30.211Z,97098.58
2024-02-08T13:29:27.698Z,97098.43
2024-02-08T13:32:14.477Z,97097.02
2024-02-08T13:35:04.504Z,97090.23
2024-02-08T13:37:54.416Z,97085.82
2024-02-08T13:40:46.333Z,97084.90
2024-02-08T13:43:34.506Z,97080.70
2024-02-08T13:46:23.050Z,97082.32
2024-02-08T13:49:09.893Z,97083.77
2024-02-08T13:51:57.678Z,97082.22
2024-02-08T13:54:47.104Z,97080.81
2024-02-08T13:57:41.085Z,97077.26
2024-02-08T14:00:28.794Z,97080.13
2024-02-08T14:03:20.457Z,97073.27
2024-02-08T14:06:11.406Z,97073.27
2024-02-08T14:09:18.539Z,97068.34
2024-02-08T14:12:09.851Z,97066.50
2024-02-08T14:14:59.028Z,97065.65
2024-02-08T14:17:55.714Z,97064.41
2024-02-08T14:20:44.596Z,97062.04
2024-02-08T14:23:32.258Z,97061.34
2024-02-08T14:26:19.130Z,97063.91
2024-02-08T14:29:07.210Z,97067.19
2024-02-08T14:31:54.463Z,97064.89
2024-02-08T14:34:42.314Z,97063.39
2024-02-08T14:37:30.048Z,97062.58
2024-02-08T14:40:16.836Z,97063.34
2024-02-08T14:43:07.583Z,97062.23
2024-02-08T14:45:55.726Z,97056.52
2024-02-08T14:48:42.585Z,97052.90
2024-02-08T14:51:37.698Z,97051.23
2024-02-08T14:54:27.312Z,97053.89
2024-02-08T14:57:20.993Z,97052.21
2024-02-08T15:00:27.817Z,97053.52
2024-02-08T15:03:23.739Z,97054.09
2024-02-08T15:06:36.921Z,97054.21
2024-02-08T15:09:35.262Z,97053.65
2024-02-08T15:12:27.954Z,97055.40
2024-02-08T15:15:20.497Z,97056.13
2024-02-08T15:18:14.481Z,97048.45
2024-02-08T15:21:05.860Z,97042.74
2024-02-08T15:24:12.318Z,97040.70
2024-02-08T15:27:09.539Z,97036.08
2024-02-08T15:30:12.162Z,97034.36
2024-02-08T15:32:59.310Z,97030.52
2024-02-08T15:35:53.721Z,97026.74
2024-02-08T15:39:02.242Z,97019.04
2024-02-08T15:41:56.891Z,97015.38
2024-02-08T15:45:09.629Z,97017.88
2024-02-08T15:47:56.952Z,97016.53
2024-02-08T15:50:44.854Z,97012.86
2024-02-08T15:53:37.943Z,97004.65
2024-02-08T15:56:27.071Z,97005.44
2024-02-08T15:59:14.154Z,96999.08
2024-02-08T16:02:06.409Z,96993.70
2024-02-08T16:04:54.616Z,96997.85
2024-02-08T16:07:44.106Z,96995.27
2024-02-08T16:10:33.404Z,96987.66
2024-02-08T16:13:24.746Z,96983.96
2024-02-08T16:16:11.408Z,96981.61
2024-02-08T16:19:03.441Z,96988.67
2024-02-08T16:21:50.989Z,96988.86
2024-02-08T16:24:43.155Z,96986.48
2024-02-08T16:27:30.862Z,96982.39
2024-02-08T16:30:29.993Z,96977.93
2024-02-08T16:33:21.865Z,96973.16
2024-02-08T16:36:33.265Z,96977.61
2024-02-08T16:39:20.773Z,96983.77
2024-02-08T16:42:19.531Z,96985.31
2024-02-08T16:45:19.196Z,96981.74
2024-02-08T16:48:15.916Z,96980.15
2024-02-08T16:51:25.138Z,96986.21
2024-02-08T16:54:21.285Z,96987.25
2024-02-08T16:57:09.122Z,96986.78
2024-02-08T16:59:55.865Z,96985.50
2024-02-08T17:02:51.135Z,96980.98
2024-02-08T17:05:51.035Z,96971.91
2024-02-08T17:08:51.739Z,96961.64
2024-02-08T17:11:41.805Z,96962.04
2024-02-08T17:14:37.851Z,96958.55
2024-02-08T17:17:36.630Z,96956.08
2024-02-08T17:20:44.272Z,96950.50
2024-02-08T17:23:43.106Z,96949.70
2024-02-08T17:26:52.467Z,96940.98
2024-02-08T17:29:44.943Z,96944.67
2024-02-08T17:32:44.451Z,96943.98
2024-02-08T17:35:35.949Z,96938.70
2024-02-08T17:38:30.315Z,96941.95
2024-02-08T17:41:20.162Z,96938.16
2024-02-08T17:44:07.402Z,96935.38
2024-02-08T17:46:54.434Z,96931.59
2024-02-08T17:49:41.589Z,96927.11
2024-02-08T17:52:28.785Z,96918.86
2024-02-08T17:55:23.146Z,96917.47
2024-02-08T17:58:14.279Z,96909.30
2024-02-08T18:01:06.585Z,96910.80
2024-02-08T18:03:54.071Z,96912.62
2024-02-08T18:06:41.192Z,96915.33
2024-02-08T18:09:57.155Z,96912.77
2024-02-08T18:12:44.907Z,96914.15
2024-02-08T18:15:36.447Z,96913.55
2024-02-08T18:18:24.442Z,96907.09
2024-02-08T18:21:17.336Z,96899.80
2024-02-08T18:24:07.574Z,96894.20
2024-02-08T18:26:56.682Z,96886.73
2024-02-08T18:29:46.290Z,96884.70
2024-02-08T18:32:36.279Z,96880.39
2024-02-08T18:35:25.038Z,96873.41
2024-02-08T18:38:14.021Z,96869.67
2024-02-08T18:41:07.676Z,96869.64
2024-02-08T18:43:56.364Z,96867.95
2024-02-08T18:46:43.400Z,96867.28
2024-02-08T18:49:32.231Z,96861.83
2024-02-08T18:52:19.797Z,96864.75
2024-02-08T18:55:11.096Z,96859.16
2024-02-08T18:58:02.565Z,96860.70
2024-02-08T19:00:56.464Z,96865.57
2024-02-08T19:03:47.742Z,96862.69
2024-02-08T19:06:40.779Z,96856.73
2024-02-08T19:09:32.404Z,96857.23
2024-02-08T19:12:19.500Z,96853.41
2024-02-08T19:15:07.947Z,96848.14
2024-02-08T19:18:03.407Z,96850.21
2024-02-08T19:20:57.348Z,96846.99
2024-02-08T19:23:44.737Z,96843.23
2024-02-08T19:26:36.979Z,96839.80
2024-02-08T19:29:26.840Z,96834.31
2024-02-08T19:32:20.756Z,96832.60
2024-02-08T19:35:11.685Z,96830.04
2024-02-08T19:38:05.248Z,96827.30
2024-02-08T19:40:54.954Z,96820.18
2024-02-08T19:43:43.125Z,96813.88
2024-02-08T19:46:30.247Z,96812.85
2024-02-08T19:49:17.271Z,96810.60
2024-02-08T19:52:08.693Z,96801.09
2024-02-08T19:54:58.439Z,96803.33
2024-02-08T19:57:49.159Z,96799.08
2024-02-08T20:00:39.184Z,96798.58
2024-02-08T20:03:28.319Z,96795.72
2024-02-08T20:06:22.456Z,96794.21
2024-02-08T20:09:13.511Z,96793.00
2024-02-08T20:12:00.716Z,96791.18
2024-02-08T20:14:49.036Z,96792.83
2024-02-08T20:17:37.892Z,96793.14
2024-02-08T20:20:25.084Z,96789.93
2024-02-08T20:23:14.966Z,96788.70
2024-02-08T20:26:02.800Z,96787.88
2024-02-08T20:28:49.573Z,96788.09
2024-02-08T20:31:36.840Z,96783.52
2024-02-08T20:34:24.057Z,96775.18
2024-02-08T20:37:15.301Z,96771.23
2024-02-08T20:40:04.099Z,96774.64
2024-02-08T20:42:55.118Z,96776.20
2024-02-08T20:45:50.836Z,96772.83
2024-02-08T20:48:41.273Z,96762.64
2024-02-08T20:51:29.944Z,96760.22
2024-02-08T20:54:17.093Z,96766.86
2024-02-08T20:57:11.305Z,96761.52
2024-02-08T20:59:58.305Z,96733.95
2024-02-08T21:02:48.341Z,96739.30
2024-02-08T21:05:38.310Z,96761.10
2024-02-08T21:08:26.778Z,96751.15
2024-02-08T21:11:13.863Z,96743.52
2024-02-08T21:14:00.848Z,96742.10
2024-02-08T21:16:50.646Z,96748.54
2024-02-08T21:19:43.369Z,96750.63
2024-02-08T21:22:30.219Z,96752.40
2024-02-08T21:25:20.297Z,96755.67
2024-02-08T21:28:15.097Z,96751.09
2024-02-08T21:31:03.034Z,96743.07
2024-02-08T21:33:53.411Z,96740.66
2024-02-08T21:36:43.867Z,96742.02
2024-02-08T21:39:33.205Z,96746.99
2024-02-08T21:42:21.249Z,96738.33
2024-02-08T21:45:13.523Z,96719.58
2024-02-08T21:48:00.512Z,96724.98
2024-02-08T21:50:53.291Z,96723.83
2024-02-08T21:53:40.430Z,96708.49
2024-02-08T21:56:30.483Z,96704.55
2024-02-08T21:59:19.596Z,96710.84
2024-02-08T22:02:09.567Z,96712.90
2024-02-08T22:04:56.542Z,96712.77
2024-02-08T22:07:48.953Z,96707.83
2024-02-08T22:10:35.983Z,96709.71
2024-02-08T22:13:24.531Z,96706.17
2024-02-08T22:16:20.429Z,96700.91
2024-02-08T22:19:07.378Z,96703.13
2024-02-08T22:21:54.388Z,96704.48
2024-02-08T22:24:43.307Z,96703.13
2024-02-08T22:27:30.162Z,96707.58
2024-02-08T22:30:17.405Z,96722.06
2024-02-08T22:33:07.789Z,96722.92
2024-02-08T22:35:54.744Z,96718.52
2024-02-08T22:38:41.969Z,96732.96
2024-02-08T22:41:29.793Z,96749.83
2024-02-08T22:44:17.176Z,96736.88
2024-02-08T22:47:07.495Z,96725.96
2024-02-08T22:49:55.023Z,96746.05
2024-02-08T22:52:45.576Z,96733.80
2024-02-08T22:55:32.876Z,96735.97
2024-02-08T22:58:21.918Z,96749.42
2024-02-08T23:01:35.698Z,96753.54
2024-02-08T23:04:24.428Z,96751.67
2024-02-08T23:07:11.903Z,96763.61
2024-02-08T23:09:58.795Z,96759.20
2024-02-08T23:12:51.492Z,96744.88
2024-02-08T23:15:38.819Z,96749.59
2024-02-08T23:18:26.272Z,96749.39
2024-02-08T23:21:13.001Z,96746.66
2024-02-08T23:24:03.535Z,96741.03
2024-02-08T23:26:50.687Z,96745.94
2024-02-08T23:29:37.292Z,96744.91
2024-02-08T23:32:26.344Z,96743.02
2024-02-08T23:35:14.000Z,96742.83
2024-02-08T23:38:01.268Z,96739.73
2024-02-08T23:40:49.349Z,96738.47
2024-02-08T23:43:39.721Z,96735.55
2024-02-08T23:46:26.908Z,96734.81
2024-02-08T23:49:13.831Z,96734.58
2024-02-08T23:52:00.651Z,96736.38
2024-02-08T23:54:49.199Z,96737.34
2024-02-08T23:57:37.470Z,96731.70
